createdAt,value
2022-07-29T00:01:51.359Z,88.02
2022-07-29T00:04:18.384Z,87.20
2022-07-29T00:06:52.263Z,86.91
2022-07-29T00:09:18.999Z,88.14
2022-07-29T00:12:06.317Z,90.03
2022-07-29T00:14:36.637Z,92.92
2022-07-29T00:17:10.328Z,92.50
2022-07-29T00:19:45.596Z,91.99
2022-07-29T00:22:19.664Z,89.98
2022-07-29T00:24:48.629Z,88.79
2022-07-29T00:27:22.472Z,88.60
2022-07-29T00:29:49.150Z,88.88
2022-07-29T00:32:16.078Z,87.98
2022-07-29T00:35:08.458Z,87.84
2022-07-29T00:37:35.189Z,88.38
2022-07-29T00:40:08.270Z,89.91
2022-07-29T00:42:53.282Z,90.42
2022-07-29T00:45:20.542Z,91.01
2022-07-29T00:47:54.438Z,90.91
2022-07-29T00:50:21.185Z,92.86
2022-07-29T00:52:55.251Z,92.75
2022-07-29T00:55:22.234Z,92.41
2022-07-29T00:57:56.286Z,92.98
2022-07-29T01:00:25.565Z,95.50
2022-07-29T01:02:59.260Z,96.45
2022-07-29T01:05:48.065Z,95.44
2022-07-29T01:08:23.259Z,96.28
2022-07-29T01:11:10.256Z,97.76
2022-07-29T01:13:38.292Z,97.15
2022-07-29T01:16:25.443Z,96.30
2022-07-29T01:18:58.314Z,96.96
2022-07-29T01:21:46.426Z,98.43
2022-07-29T01:24:13.527Z,97.88
2022-07-29T01:26:50.257Z,97.61
2022-07-29T01:29:18.946Z,97.20
2022-07-29T01:32:27.508Z,97.71
2022-07-29T01:35:07.315Z,95.77
2022-07-29T01:37:44.306Z,97.27
2022-07-29T01:40:23.108Z,97.77
2022-07-29T01:43:02.276Z,98.78
2022-07-29T01:45:41.766Z,100.00
2022-07-29T01:48:24.264Z,100.00
2022-07-29T01:51:05.787Z,99.34
2022-07-29T01:53:51.265Z,100.00
2022-07-29T01:56:21.089Z,100.00
2022-07-29T01:58:57.422Z,100.00
2022-07-29T02:01:26.678Z,100.00
2022-07-29T02:04:02.256Z,100.00
2022-07-29T02:06:31.565Z,100.00
2022-07-29T02:09:06.268Z,100.00
2022-07-29T02:11:55.252Z,100.00
2022-07-29T02:14:31.429Z,100.00
2022-07-29T02:17:07.235Z,100.00
2022-07-29T02:19:35.293Z,100.00
2022-07-29T02:22:09.262Z,100.00
2022-07-29T02:24:45.250Z,100.00
2022-07-29T02:27:14.892Z,100.00
2022-07-29T02:29:49.280Z,100.00
2022-07-29T02:32:18.297Z,100.00
2022-07-29T02:34:47.347Z,100.00
2022-07-29T02:37:21.266Z,100.00
2022-07-29T02:39:49.871Z,100.00
2022-07-29T02:42:25.234Z,100.00
2022-07-29T02:44:59.458Z,100.00
2022-07-29T02:47:41.838Z,100.00
2022-07-29T02:50:16.317Z,100.00
2022-07-29T02:52:46.641Z,100.00
2022-07-29T02:55:32.236Z,100.00
2022-07-29T02:58:30.532Z,100.00
2022-07-29T03:01:21.108Z,100.00
2022-07-29T03:03:57.244Z,100.00
2022-07-29T03:06:38.027Z,100.00
2022-07-29T03:09:15.221Z,100.00
2022-07-29T03:11:51.047Z,100.00
2022-07-29T03:14:32.220Z,100.00
2022-07-29T03:16:59.732Z,100.00
2022-07-29T03:19:34.254Z,100.00
2022-07-29T03:22:01.354Z,100.00
2022-07-29T03:24:39.236Z,100.00
2022-07-29T03:27:06.545Z,100.00
2022-07-29T03:29:34.649Z,100.00
2022-07-29T03:32:13.238Z,100.00
2022-07-29T03:34:40.865Z,100.00
2022-07-29T03:37:14.410Z,100.00
2022-07-29T03:39:43.998Z,100.00
2022-07-29T03:42:21.246Z,100.00
2022-07-29T03:44:50.778Z,100.00
2022-07-29T03:47:49.736Z,100.00
2022-07-29T03:50:19.237Z,100.00
2022-07-29T03:52:53.395Z,100.00
2022-07-29T03:55:20.498Z,100.00
2022-07-29T03:57:55.306Z,100.00
2022-07-29T04:00:24.022Z,100.00
2022-07-29T04:02:51.125Z,100.00
2022-07-29T04:05:25.248Z,100.00
2022-07-29T04:07:58.219Z,100.00
2022-07-29T04:10:32.172Z,100.00
2022-07-29T04:13:07.475Z,100.00
2022-07-29T04:15:40.302Z,100.00
2022-07-29T04:18:07.095Z,100.00
2022-07-29T04:20:40.248Z,100.00
2022-07-29T04:23:06.898Z,100.00
2022-07-29T04:25:40.292Z,100.00
2022-07-29T04:28:08.078Z,100.00
2022-07-29T04:30:43.483Z,100.00
2022-07-29T04:33:17.240Z,100.00
2022-07-29T04:35:52.460Z,100.00
2022-07-29T04:38:21.841Z,100.00
2022-07-29T04:40:49.773Z,100.00
2022-07-29T04:43:23.505Z,100.00
2022-07-29T04:45:50.711Z,100.00
2022-07-29T04:48:28.750Z,100.00
2022-07-29T04:50:56.091Z,100.00
2022-07-29T04:53:29.208Z,100.00
2022-07-29T04:55:56.342Z,100.00
2022-07-29T04:58:31.248Z,100.00
2022-07-29T05:00:58.085Z,100.00
2022-07-29T05:03:24.720Z,100.00
2022-07-29T05:05:58.406Z,100.00
2022-07-29T05:08:32.292Z,100.00
2022-07-29T05:10:59.383Z,100.00
2022-07-29T05:13:52.393Z,100.00
2022-07-29T05:16:19.117Z,100.00
2022-07-29T05:18:52.217Z,100.00
2022-07-29T05:21:25.237Z,100.00
2022-07-29T05:23:58.295Z,100.00
2022-07-29T05:26:24.980Z,100.00
2022-07-29T05:28:58.227Z,100.00
2022-07-29T05:31:31.299Z,100.00
2022-07-29T05:33:58.394Z,99.29
2022-07-29T05:36:25.154Z,100.00
2022-07-29T05:38:59.431Z,100.00
2022-07-29T05:41:27.160Z,100.00
2022-07-29T05:43:53.896Z,100.00
2022-07-29T05:46:27.440Z,100.00
2022-07-29T05:48:54.716Z,100.00
2022-07-29T05:51:28.268Z,99.35
2022-07-29T05:53:55.031Z,99.25
2022-07-29T05:56:28.210Z,98.99
2022-07-29T05:58:55.146Z,100.00
2022-07-29T06:01:22.083Z,100.00
2022-07-29T06:03:55.241Z,100.00
2022-07-29T06:06:22.609Z,99.97
2022-07-29T06:08:49.537Z,100.00
2022-07-29T06:11:23.193Z,100.00
2022-07-29T06:13:56.312Z,100.00
2022-07-29T06:16:30.129Z,100.00
2022-07-29T06:18:57.265Z,100.00
2022-07-29T06:21:30.202Z,100.00
2022-07-29T06:23:56.977Z,100.00
2022-07-29T06:26:30.348Z,100.00
2022-07-29T06:29:05.222Z,100.00
2022-07-29T06:31:32.298Z,99.50
2022-07-29T06:33:59.158Z,100.00
2022-07-29T06:36:32.206Z,100.00
2022-07-29T06:39:05.214Z,100.00
2022-07-29T06:41:39.210Z,100.00
2022-07-29T06:44:12.390Z,100.00
2022-07-29T06:46:45.197Z,100.00
2022-07-29T06:49:13.436Z,99.54
2022-07-29T06:51:47.374Z,98.06
2022-07-29T06:54:21.220Z,97.46
2022-07-29T06:56:55.206Z,98.36
2022-07-29T06:59:35.125Z,99.30
2022-07-29T07:02:09.227Z,98.40
2022-07-29T07:04:42.290Z,98.33
2022-07-29T07:07:15.226Z,97.12
2022-07-29T07:09:41.953Z,96.51
2022-07-29T07:12:15.241Z,93.92
2022-07-29T07:14:49.209Z,93.54
2022-07-29T07:17:22.216Z,92.58
2022-07-29T07:19:55.730Z,90.48
2022-07-29T07:22:29.398Z,91.17
2022-07-29T07:24:56.140Z,92.59
2022-07-29T07:27:23.041Z,91.66
2022-07-29T07:29:56.189Z,91.24
2022-07-29T07:32:29.255Z,90.86
2022-07-29T07:34:55.884Z,89.47
2022-07-29T07:37:29.213Z,90.59
2022-07-29T07:39:56.138Z,92.93
2022-07-29T07:42:23.181Z,92.04
2022-07-29T07:45:12.643Z,91.87
2022-07-29T07:47:40.876Z,90.92
2022-07-29T07:50:18.896Z,90.72
2022-07-29T07:52:59.358Z,89.79
2022-07-29T07:55:53.430Z,92.06
2022-07-29T07:58:27.260Z,91.80
2022-07-29T08:00:54.042Z,92.54
2022-07-29T08:03:20.788Z,91.75
2022-07-29T08:05:55.199Z,90.58
2022-07-29T08:08:22.077Z,90.76
2022-07-29T08:11:06.792Z,90.88
2022-07-29T08:13:49.217Z,92.45
2022-07-29T08:16:22.248Z,95.17
2022-07-29T08:18:49.288Z,96.08
2022-07-29T08:21:23.249Z,95.02
2022-07-29T08:24:22.196Z,96.69
2022-07-29T08:26:55.219Z,95.81
2022-07-29T08:29:21.899Z,94.44
2022-07-29T08:31:55.548Z,96.64
2022-07-29T08:34:27.701Z,94.49
2022-07-29T08:37:01.526Z,94.30
2022-07-29T08:39:28.413Z,94.30
2022-07-29T08:42:02.460Z,93.58
2022-07-29T08:44:30.767Z,93.54
2022-07-29T08:47:04.497Z,93.95
2022-07-29T08:49:31.921Z,94.56
2022-07-29T08:52:06.189Z,93.49
2022-07-29T08:54:50.174Z,93.27
2022-07-29T08:57:17.864Z,96.85
2022-07-29T08:59:54.179Z,94.33
2022-07-29T09:02:21.426Z,94.71
2022-07-29T09:04:55.183Z,93.85
2022-07-29T09:07:22.465Z,93.61
2022-07-29T09:09:56.189Z,94.65
2022-07-29T09:12:32.742Z,93.83
2022-07-29T09:15:15.185Z,92.62
2022-07-29T09:17:47.682Z,92.23
2022-07-29T09:20:27.176Z,91.63
2022-07-29T09:23:04.184Z,89.17
2022-07-29T09:25:46.202Z,89.58
2022-07-29T09:30:53.185Z,88.53
2022-07-29T09:33:28.179Z,87.76
2022-07-29T09:36:04.792Z,87.58
2022-07-29T09:38:40.179Z,91.23
2022-07-29T09:41:09.011Z,84.31
2022-07-29T09:43:42.195Z,88.51
2022-07-29T09:46:13.846Z,92.24
2022-07-29T09:48:40.664Z,82.74
2022-07-29T09:51:38.582Z,86.41
2022-07-29T09:54:31.199Z,86.56
2022-07-29T09:56:58.177Z,81.84
2022-07-29T09:59:27.341Z,83.71
2022-07-29T10:02:01.197Z,81.08
2022-07-29T10:04:46.164Z,82.51
2022-07-29T10:07:12.877Z,79.67
2022-07-29T10:09:47.172Z,79.96
2022-07-29T10:12:34.158Z,85.38
2022-07-29T10:15:02.948Z,82.44
2022-07-29T10:17:36.183Z,82.00
2022-07-29T10:20:16.569Z,81.35
2022-07-29T10:22:53.425Z,82.32
2022-07-29T10:25:21.936Z,84.78
2022-07-29T10:27:56.205Z,81.42
2022-07-29T10:30:25.233Z,78.43
2022-07-29T10:33:38.172Z,77.75
2022-07-29T10:36:25.450Z,80.62
2022-07-29T10:39:22.447Z,81.49
2022-07-29T10:42:03.653Z,80.34
2022-07-29T10:44:31.501Z,75.92
2022-07-29T10:47:05.308Z,81.60
2022-07-29T10:49:32.147Z,85.29
2022-07-29T10:52:17.201Z,77.61
2022-07-29T10:54:47.355Z,78.11
2022-07-29T10:57:21.172Z,79.54
2022-07-29T10:59:50.583Z,76.34
2022-07-29T11:05:40.889Z,77.49
2022-07-29T11:08:31.170Z,79.77
2022-07-29T11:11:51.380Z,76.35
2022-07-29T11:15:01.492Z,75.89
2022-07-29T11:17:47.072Z,72.22
2022-07-29T11:20:46.034Z,72.12
2022-07-29T11:23:39.157Z,70.26
2022-07-29T11:26:23.150Z,75.18
2022-07-29T11:28:57.219Z,75.05
2022-07-29T11:31:44.185Z,74.55
2022-07-29T11:34:44.191Z,67.19
2022-07-29T11:37:17.603Z,67.16
2022-07-29T11:40:06.195Z,73.78
2022-07-29T11:42:35.530Z,68.93
2022-07-29T11:45:42.916Z,66.18
2022-07-29T11:48:29.302Z,60.87
2022-07-29T11:51:00.473Z,64.36
2022-07-29T11:53:29.111Z,68.39
2022-07-29T11:56:07.164Z,69.98
2022-07-29T11:58:33.952Z,66.92
2022-07-29T12:01:08.191Z,65.48
2022-07-29T12:03:43.688Z,61.84
2022-07-29T12:06:22.458Z,58.42
2022-07-29T12:08:49.235Z,60.18
2022-07-29T12:11:30.505Z,61.72
2022-07-29T12:14:03.902Z,60.98
2022-07-29T12:16:46.255Z,70.18
2022-07-29T12:19:13.170Z,56.37
2022-07-29T12:21:56.898Z,60.66
2022-07-29T12:24:26.796Z,64.18
2022-07-29T12:27:05.162Z,60.05
2022-07-29T12:29:38.176Z,52.73
2022-07-29T12:32:15.079Z,58.13
2022-07-29T12:34:46.997Z,61.70
2022-07-29T12:37:20.186Z,55.04
2022-07-29T12:39:59.093Z,62.30
2022-07-29T12:42:32.180Z,59.10
2022-07-29T12:45:05.177Z,53.91
2022-07-29T12:47:31.912Z,53.65
2022-07-29T12:50:26.581Z,51.64
2022-07-29T12:52:53.369Z,48.34
2022-07-29T12:56:03.524Z,44.60
2022-07-29T12:58:41.501Z,46.26
2022-07-29T13:01:17.746Z,43.79
2022-07-29T13:03:56.679Z,44.57
2022-07-29T13:06:49.645Z,41.78
2022-07-29T13:09:31.194Z,50.18
2022-07-29T13:12:16.306Z,48.27
2022-07-29T13:15:02.178Z,47.72
2022-07-29T13:17:35.214Z,48.82
2022-07-29T13:20:13.488Z,43.43
2022-07-29T13:22:47.257Z,43.81
2022-07-29T13:25:14.175Z,49.79
2022-07-29T13:27:41.682Z,40.99
2022-07-29T13:30:17.178Z,42.45
2022-07-29T13:32:50.143Z,45.51
2022-07-29T13:35:17.677Z,44.39
2022-07-29T13:37:51.997Z,43.98
2022-07-29T13:40:18.964Z,45.75
2022-07-29T13:42:52.349Z,45.13
2022-07-29T13:45:19.800Z,48.29
2022-07-29T13:47:53.181Z,46.62
2022-07-29T13:50:26.153Z,49.27
2022-07-29T13:52:52.912Z,47.26
2022-07-29T13:55:27.186Z,46.92
2022-07-29T13:57:53.840Z,43.45
2022-07-29T14:00:27.182Z,44.86
2022-07-29T14:03:00.165Z,42.15
2022-07-29T14:05:27.021Z,47.62
2022-07-29T14:07:53.680Z,48.29
2022-07-29T14:10:27.173Z,50.40
2022-07-29T14:13:24.635Z,51.69
2022-07-29T14:15:59.167Z,49.54
2022-07-29T14:18:25.925Z,53.05
2022-07-29T14:20:59.169Z,50.51
2022-07-29T14:23:25.846Z,55.03
2022-07-29T14:26:00.156Z,54.58
2022-07-29T14:28:36.087Z,51.08
2022-07-29T14:31:05.881Z,57.23
2022-07-29T14:33:32.629Z,52.34
2022-07-29T14:36:06.176Z,46.67
2022-07-29T14:38:39.163Z,47.27
2022-07-29T14:41:06.732Z,47.50
2022-07-29T14:43:40.155Z,47.71
2022-07-29T14:46:08.639Z,46.20
2022-07-29T14:48:42.275Z,46.90
2022-07-29T14:51:08.992Z,48.55
2022-07-29T14:53:42.601Z,49.86
2022-07-29T14:56:35.014Z,51.24
2022-07-29T14:59:03.143Z,48.97
2022-07-29T15:01:36.201Z,48.50
2022-07-29T15:04:03.301Z,49.03
2022-07-29T15:06:36.171Z,49.28
2022-07-29T15:09:03.067Z,52.74
2022-07-29T15:11:38.734Z,48.87
2022-07-29T15:14:26.158Z,51.72
2022-07-29T15:16:59.185Z,52.54
2022-07-29T15:19:27.187Z,54.41
2022-07-29T15:22:00.194Z,56.17
2022-07-29T15:24:27.071Z,53.06
2022-07-29T15:26:54.622Z,56.08
2022-07-29T15:29:28.155Z,54.39
2022-07-29T15:31:54.995Z,57.31
2022-07-29T15:34:30.366Z,56.11
2022-07-29T15:36:57.111Z,54.47
2022-07-29T15:39:23.933Z,56.89
2022-07-29T15:41:58.249Z,58.18
2022-07-29T15:44:25.090Z,58.48
2022-07-29T15:47:16.379Z,57.86
2022-07-29T15:49:48.213Z,57.05
2022-07-29T15:52:27.318Z,54.95
2022-07-29T15:54:57.946Z,54.28
2022-07-29T15:57:32.160Z,55.77
2022-07-29T16:00:05.185Z,56.84
2022-07-29T16:02:38.168Z,58.37
2022-07-29T16:05:12.183Z,58.26
2022-07-29T16:07:45.230Z,56.12
2022-07-29T16:10:12.044Z,59.25
2022-07-29T16:12:52.178Z,57.59
2022-07-29T16:15:25.273Z,58.03
2022-07-29T16:17:51.904Z,58.66
2022-07-29T16:20:25.168Z,58.93
2022-07-29T16:22:58.156Z,56.39
2022-07-29T16:25:43.884Z,57.88
2022-07-29T16:28:18.152Z,56.82
2022-07-29T16:30:51.171Z,54.59
2022-07-29T16:33:24.159Z,55.48
2022-07-29T16:35:58.248Z,55.39
2022-07-29T16:38:24.950Z,55.77
2022-07-29T16:40:58.157Z,56.82
2022-07-29T16:43:31.178Z,56.18
2022-07-29T16:45:57.936Z,57.70
2022-07-29T16:48:24.826Z,59.24
2022-07-29T16:50:58.195Z,59.47
2022-07-29T16:53:29.701Z,57.94
2022-07-29T16:55:56.754Z,60.48
2022-07-29T16:58:30.161Z,62.45
2022-07-29T17:00:56.901Z,62.20
2022-07-29T17:03:30.166Z,61.14
2022-07-29T17:05:57.395Z,61.99
2022-07-29T17:08:45.156Z,63.49
2022-07-29T17:11:18.322Z,65.68
2022-07-29T17:14:02.372Z,65.74
2022-07-29T17:16:36.359Z,65.68
2022-07-29T17:19:10.171Z,65.63
2022-07-29T17:21:48.902Z,69.57
2022-07-29T17:24:23.157Z,67.49
2022-07-29T17:26:58.466Z,66.08
2022-07-29T17:29:25.462Z,66.45
2022-07-29T17:31:59.228Z,67.08
2022-07-29T17:34:26.269Z,68.77
2022-07-29T17:36:59.633Z,67.70
2022-07-29T17:39:26.538Z,68.77
2022-07-29T17:42:00.197Z,69.51
2022-07-29T17:44:36.303Z,69.89
2022-07-29T17:47:04.261Z,69.06
2022-07-29T17:49:38.158Z,70.89
2022-07-29T17:52:05.284Z,70.74
2022-07-29T17:54:38.144Z,71.28
2022-07-29T17:57:04.929Z,73.17
2022-07-29T17:59:38.162Z,72.25
2022-07-29T18:02:04.978Z,72.47
2022-07-29T18:04:38.170Z,73.15
2022-07-29T18:07:04.895Z,73.61
2022-07-29T18:09:38.180Z,74.65
2022-07-29T18:12:12.146Z,75.98
2022-07-29T18:14:52.338Z,74.62
2022-07-29T18:17:48.387Z,75.60
2022-07-29T18:20:13.325Z,76.73
2022-07-29T18:22:46.341Z,78.58
2022-07-29T18:25:13.151Z,77.77
2022-07-29T18:27:39.889Z,78.48
2022-07-29T18:30:14.158Z,77.60
2022-07-29T18:33:18.235Z,79.77
2022-07-29T18:35:41.198Z,83.08
2022-07-29T18:38:14.157Z,83.02
2022-07-29T18:40:42.160Z,82.36
2022-07-29T18:43:16.171Z,82.51
2022-07-29T18:45:49.138Z,85.69
2022-07-29T18:48:17.274Z,83.37
2022-07-29T18:50:50.139Z,84.66
2022-07-29T18:53:24.151Z,83.77
2022-07-29T18:55:50.917Z,86.62
2022-07-29T18:58:24.162Z,86.86
2022-07-29T19:00:57.327Z,88.39
2022-07-29T19:03:24.138Z,87.59
2022-07-29T19:05:58.143Z,89.67
2022-07-29T19:08:24.894Z,89.49
2022-07-29T19:10:58.154Z,92.18
2022-07-29T19:13:45.189Z,90.88
2022-07-29T19:16:20.203Z,90.09
2022-07-29T19:18:54.138Z,88.33
2022-07-29T19:21:29.191Z,89.13
2022-07-29T19:24:06.881Z,88.82
2022-07-29T19:26:36.703Z,90.85
2022-07-29T19:29:11.160Z,91.64
2022-07-29T19:31:37.941Z,91.75
2022-07-29T19:34:04.801Z,92.17
2022-07-29T19:36:39.216Z,91.91
2022-07-29T19:39:06.176Z,92.25
2022-07-29T19:41:41.152Z,93.06
2022-07-29T19:44:07.932Z,93.90
2022-07-29T19:46:41.208Z,94.16
2022-07-29T19:49:14.173Z,94.38
2022-07-29T19:51:48.300Z,92.98
2022-07-29T19:54:18.162Z,93.16
2022-07-29T19:56:52.126Z,90.97
2022-07-29T19:59:19.397Z,86.34
2022-07-29T20:01:58.201Z,82.16
2022-07-29T20:04:25.229Z,82.70
2022-07-29T20:07:02.485Z,82.82
2022-07-29T20:09:29.249Z,81.03
2022-07-29T20:12:02.158Z,80.71
2022-07-29T20:14:49.133Z,80.04
2022-07-29T20:17:23.141Z,81.18
2022-07-29T20:19:51.437Z,81.79
2022-07-29T20:22:21.013Z,83.84
2022-07-29T20:24:55.113Z,83.51
2022-07-29T20:27:21.912Z,87.35
2022-07-29T20:29:55.163Z,89.76
2022-07-29T20:32:21.996Z,99.84
2022-07-29T20:34:55.173Z,100.00
2022-07-29T20:37:21.993Z,100.00
2022-07-29T20:39:50.023Z,100.00
2022-07-29T20:42:23.148Z,100.00
2022-07-29T20:44:51.164Z,100.00
2022-07-29T20:47:24.168Z,100.00
2022-07-29T20:49:50.952Z,100.00
2022-07-29T20:52:28.164Z,100.00
2022-07-29T20:54:54.852Z,100.00
2022-07-29T20:57:38.550Z,100.00
2022-07-29T21:00:14.214Z,100.00
2022-07-29T21:02:48.216Z,100.00
2022-07-29T21:05:15.898Z,100.00
2022-07-29T21:07:42.851Z,100.00
2022-07-29T21:10:16.126Z,100.00
2022-07-29T21:12:42.953Z,100.00
2022-07-29T21:15:20.200Z,100.00
2022-07-29T21:17:47.327Z,100.00
2022-07-29T21:20:27.139Z,100.00
2022-07-29T21:22:56.600Z,100.00
2022-07-29T21:25:31.146Z,100.00
2022-07-29T21:28:16.420Z,100.00
2022-07-29T21:30:50.160Z,100.00
2022-07-29T21:33:17.019Z,100.00
2022-07-29T21:38:37.600Z,100.00
2022-07-29T21:41:12.125Z,100.00
2022-07-29T21:43:41.927Z,100.00
2022-07-29T21:46:16.209Z,100.00
2022-07-29T21:48:44.699Z,100.00
2022-07-29T21:51:18.142Z,100.00
2022-07-29T21:53:44.889Z,100.00
2022-07-29T21:56:19.127Z,100.00
2022-07-29T21:58:45.889Z,100.00
2022-07-29T22:01:19.358Z,100.00
2022-07-29T22:03:46.126Z,100.00
2022-07-29T22:06:18.358Z,100.00
2022-07-29T22:08:52.194Z,100.00
2022-07-29T22:11:25.127Z,100.00
2022-07-29T22:13:58.232Z,100.00
2022-07-29T22:16:31.184Z,100.00
2022-07-29T22:18:57.906Z,100.00
2022-07-29T22:21:31.127Z,100.00
2022-07-29T22:23:58.252Z,100.00
2022-07-29T22:26:32.102Z,100.00
2022-07-29T22:29:05.135Z,100.00
2022-07-29T22:31:31.953Z,100.00
2022-07-29T22:34:05.093Z,100.00
2022-07-29T22:36:38.133Z,100.00
2022-07-29T22:39:11.098Z,100.00
2022-07-29T22:41:42.386Z,100.00
2022-07-29T22:44:16.095Z,100.00
2022-07-29T22:46:49.094Z,100.00
2022-07-29T22:49:16.201Z,100.00
2022-07-29T22:51:43.078Z,100.00
2022-07-29T22:54:16.755Z,100.00
2022-07-29T22:56:43.713Z,100.00
2022-07-29T22:59:17.195Z,100.00
2022-07-29T23:01:44.772Z,100.00
2022-07-29T23:04:18.105Z,100.00
2022-07-29T23:06:44.773Z,100.00
2022-07-29T23:09:18.111Z,100.00
2022-07-29T23:11:45.024Z,100.00
2022-07-29T23:14:32.127Z,100.00
2022-07-29T23:16:59.062Z,100.00
2022-07-29T23:19:32.097Z,100.00
2022-07-29T23:21:58.893Z,100.00
2022-07-29T23:24:32.107Z,100.00
2022-07-29T23:26:59.129Z,100.00
2022-07-29T23:29:36.593Z,100.00
2022-07-29T23:32:03.838Z,100.00
2022-07-29T23:34:30.610Z,100.00
2022-07-29T23:37:04.230Z,100.00
2022-07-29T23:39:31.084Z,100.00
2022-07-29T23:42:04.115Z,100.00
2022-07-29T23:44:30.908Z,100.00
2022-07-29T23:47:04.445Z,100.00
2022-07-29T23:49:31.565Z,100.00
2022-07-29T23:52:05.259Z,100.00
2022-07-29T23:54:31.994Z,100.00
2022-07-29T23:57:05.102Z,100.00
2022-07-29T23:59:31.791Z,100.00
